Dogwood Terrace, Louisiana
Current Conditions -  °F | °C
As of 3:58 PM on Thursday 27 Nov 2014 (Local Time) from KPOE Reporting Station
Clear Clear  
Wind Chill: 59°   Ceiling: Unl
Heat Index: 59°   Visibility: 10mi
Dew Point: 31°   Wind: 5mph
Humidity: 34%   Direction: 40°NE
Pressure: 30.42"   Gusts: NA
Location:  30.9864°N, 93.2144°W
Report Text: KPOE 272158Z AUTO 04004KT 10SM CLR 15/M01 A3042 RMK AO2 SLP304 T01481008
Loading
Personal Weather Stations






























Interactive Weather Map New forecast layout! Learn more

10-Day Weather Forecast

Advertisements
Track Severe Weather on mobile